Time;durP1;ratioP1;P1;durP2;ratioP2;P2;SDS_P1;SDS_P2;PMS_P1;PMS_P2;Temp;Humidity;BMP_temperature;BMP_pressure;BME280_temperature;BME280_humidity;BME280_pressure;Samples;Min_cycle;Max_cycle;Signal;HPM_P1;HPM_P2
2022/03/06 00:01:10;;;;;;;14.88;10.02;;;20.30;43.70;;;;;;5032751;28;20416;-66
2022/03/06 00:03:36;;;;;;;14.13;9.40;;;20.30;43.70;;;;;;5034290;28;20020;-67
2022/03/06 00:06:01;;;;;;;15.15;9.52;;;20.30;44.20;;;;;;5035351;28;20105;-69
2022/03/06 00:08:27;;;;;;;15.18;9.30;;;20.30;43.70;;;;;;5034703;28;20542;-70
2022/03/06 00:10:54;;;;;;;14.07;8.75;;;20.30;43.70;;;;;;5035418;28;20121;-69
2022/03/06 00:13:19;;;;;;;14.75;9.35;;;20.30;43.70;;;;;;5034186;28;21133;-70
2022/03/06 00:15:45;;;;;;;15.45;9.60;;;20.30;43.80;;;;;;5035168;28;20028;-67
2022/03/06 00:18:11;;;;;;;12.75;8.60;;;20.30;43.70;;;;;;5035698;28;20033;-70
2022/03/06 00:20:36;;;;;;;14.70;9.48;;;20.20;43.70;;;;;;5033552;28;20028;-69
2022/03/06 00:23:05;;;;;;;15.38;9.07;;;20.30;43.70;;;;;;5038336;28;20029;-70
2022/03/06 00:25:31;;;;;;;15.25;8.65;;;20.20;43.70;;;;;;5036208;28;20279;-70
2022/03/06 00:27:57;;;;;;;15.50;9.27;;;20.20;43.60;;;;;;5039176;28;20464;-68
2022/03/06 00:30:22;;;;;;;12.80;8.18;;;20.20;43.60;;;;;;5037439;28;20032;-68
2022/03/06 00:32:48;;;;;;;13.32;9.40;;;20.20;44.20;;;;;;5038696;28;20086;-66
2022/03/06 00:35:13;;;;;;;13.10;8.55;;;20.20;43.60;;;;;;5038125;28;20037;-65
2022/03/06 00:37:39;;;;;;;14.60;9.20;;;20.20;43.60;;;;;;5037879;28;20053;-68
2022/03/06 00:40:06;;;;;;;13.68;8.80;;;20.20;43.50;;;;;;5036098;28;20055;-68
2022/03/06 00:42:32;;;;;;;14.05;8.05;;;20.20;43.50;;;;;;5020215;28;20038;-66
2022/03/06 00:44:57;;;;;;;12.48;8.10;;;20.20;43.50;;;;;;5039053;28;20040;-69
2022/03/06 00:47:23;;;;;;;12.85;8.00;;;20.20;43.50;;;;;;5039274;28;20028;-69
2022/03/06 00:49:49;;;;;;;13.57;8.45;;;20.20;43.50;;;;;;5038022;28;20031;-66
2022/03/06 00:52:15;;;;;;;13.45;8.23;;;20.20;43.50;;;;;;5020206;28;20037;-64
2022/03/06 00:54:41;;;;;;;12.98;7.82;;;20.20;43.40;;;;;;5036429;28;20036;-65
2022/03/06 00:57:06;;;;;;;12.50;7.65;;;20.20;43.50;;;;;;5035910;28;20130;-68
2022/03/06 00:59:35;;;;;;;10.90;7.45;;;20.20;43.40;;;;;;5037067;28;20037;-65
2022/03/06 01:02:06;;;;;;;12.20;7.45;;;20.20;43.40;;;;;;5036894;28;20505;-66
2022/03/06 01:04:32;;;;;;;11.80;7.50;;;20.20;43.50;;;;;;5021174;28;20030;-68
2022/03/06 01:06:58;;;;;;;10.93;7.15;;;20.20;43.40;;;;;;5036505;28;20072;-66
2022/03/06 01:09:24;;;;;;;10.98;7.20;;;20.20;43.40;;;;;;5035702;28;20100;-65
2022/03/06 01:11:51;;;;;;;11.77;7.60;;;20.20;43.30;;;;;;5019287;28;20116;-66
2022/03/06 01:14:17;;;;;;;9.88;7.35;;;20.20;43.40;;;;;;5036101;28;20470;-65
2022/03/06 01:16:43;;;;;;;8.93;6.38;;;20.20;43.30;;;;;;5037374;28;20102;-68
2022/03/06 01:19:08;;;;;;;11.55;7.45;;;20.20;43.30;;;;;;5038603;28;20125;-66
2022/03/06 01:21:34;;;;;;;11.23;7.15;;;20.20;43.40;;;;;;5037912;28;20029;-68
2022/03/06 01:23:59;;;;;;;10.75;7.15;;;20.10;43.30;;;;;;5033421;28;20066;-68
2022/03/06 01:26:25;;;;;;;10.20;6.75;;;20.10;43.30;;;;;;5036163;28;20036;-65
2022/03/06 01:28:51;;;;;;;10.00;6.65;;;20.10;43.30;;;;;;5035962;28;20040;-65
2022/03/06 01:31:16;;;;;;;10.88;6.45;;;20.10;43.30;;;;;;5037140;28;20573;-65
2022/03/06 01:33:42;;;;;;;9.45;6.55;;;20.10;43.30;;;;;;5035253;28;20109;-68
2022/03/06 01:36:08;;;;;;;10.45;6.72;;;20.10;43.30;;;;;;5036591;28;20105;-65
2022/03/06 01:38:33;;;;;;;9.75;6.43;;;20.10;43.30;;;;;;5036150;28;20160;-68
2022/03/06 01:40:59;;;;;;;9.68;6.30;;;20.10;43.30;;;;;;5035504;28;20528;-66
2022/03/06 01:43:25;;;;;;;8.82;6.07;;;20.10;43.30;;;;;;5038252;28;20097;-66
2022/03/06 01:45:50;;;;;;;9.57;6.53;;;20.00;43.20;;;;;;5037156;28;20029;-66
2022/03/06 01:48:16;;;;;;;7.82;5.78;;;20.10;43.30;;;;;;5038123;28;20513;-66
2022/03/06 01:50:42;;;;;;;9.70;6.40;;;20.10;43.30;;;;;;5036921;28;20123;-66
2022/03/06 01:53:10;;;;;;;9.50;5.97;;;20.10;43.80;;;;;;5019230;28;20345;-69
2022/03/06 01:55:36;;;;;;;9.75;6.28;;;20.10;43.30;;;;;;5036603;28;20053;-68
2022/03/06 01:58:04;;;;;;;7.80;5.55;;;20.00;43.30;;;;;;5036508;28;20040;-68
2022/03/06 02:00:34;;;;;;;11.23;5.97;;;20.00;43.30;;;;;;5035972;28;20075;-68
2022/03/06 02:03:00;;;;;;;9.18;5.78;;;20.00;43.20;;;;;;5018232;28;20545;-68
2022/03/06 02:05:26;;;;;;;10.82;6.57;;;20.00;43.20;;;;;;5036439;28;20035;-68
2022/03/06 02:07:52;;;;;;;9.52;6.28;;;20.00;43.20;;;;;;5036631;28;20036;-68
2022/03/06 02:10:18;;;;;;;9.13;5.85;;;20.00;43.20;;;;;;5034353;28;20499;-69
2022/03/06 02:12:44;;;;;;;8.20;5.78;;;20.00;43.30;;;;;;5033771;28;20024;-68
2022/03/06 02:15:12;;;;;;;9.27;6.35;;;20.00;43.30;;;;;;5037031;28;20370;-64
2022/03/06 02:17:39;;;;;;;8.80;5.80;;;20.00;43.30;;;;;;5037130;28;20429;-66
2022/03/06 02:20:07;;;;;;;8.32;5.57;;;20.00;43.20;;;;;;5036153;28;20057;-66
2022/03/06 02:22:35;;;;;;;8.65;5.97;;;20.00;43.30;;;;;;5035554;28;20110;-68
2022/03/06 02:25:07;;;;;;;7.78;5.28;;;20.00;43.20;;;;;;5016923;28;20114;-66
2022/03/06 02:27:34;;;;;;;8.50;5.45;;;19.90;43.20;;;;;;5035882;28;20076;-66
2022/03/06 02:29:59;;;;;;;7.78;5.00;;;20.00;43.30;;;;;;5024101;28;20041;-68
2022/03/06 02:32:25;;;;;;;8.20;5.40;;;20.00;43.30;;;;;;5036805;28;20049;-66
2022/03/06 02:34:52;;;;;;;8.10;5.20;;;19.90;43.30;;;;;;5026341;28;20030;-68
2022/03/06 02:37:20;;;;;;;7.97;5.40;;;19.90;43.20;;;;;;5036806;28;20495;-66
2022/03/06 02:39:48;;;;;;;6.82;4.75;;;19.90;43.20;;;;;;5034414;28;20526;-65
2022/03/06 02:42:25;;;;;;;7.45;5.28;;;19.90;43.20;;;;;;5035524;28;20087;-68
2022/03/06 02:44:51;;;;;;;8.43;5.00;;;19.90;43.20;;;;;;5033934;28;20040;-68
2022/03/06 02:47:17;;;;;;;7.60;4.82;;;19.90;43.20;;;;;;5034556;28;20466;-69
2022/03/06 02:49:42;;;;;;;6.80;4.68;;;19.90;43.20;;;;;;5035405;28;20026;-69
2022/03/06 02:52:09;;;;;;;7.47;5.07;;;19.90;43.20;;;;;;5035893;28;20040;-69
2022/03/06 02:54:36;;;;;;;7.05;4.80;;;19.90;43.20;;;;;;5034978;28;20561;-65
2022/03/06 02:57:05;;;;;;;7.60;5.10;;;19.90;43.20;;;;;;5034104;28;20126;-66
2022/03/06 02:59:31;;;;;;;6.57;4.55;;;19.90;43.20;;;;;;5035579;28;20046;-67
2022/03/06 03:01:56;;;;;;;6.32;4.53;;;19.90;43.20;;;;;;5035857;28;20447;-65
2022/03/06 03:04:22;;;;;;;7.45;4.75;;;19.90;43.20;;;;;;5036377;28;20040;-65
2022/03/06 03:06:52;;;;;;;6.55;4.60;;;19.90;43.20;;;;;;5037292;28;20056;-63
2022/03/06 03:09:19;;;;;;;6.57;4.40;;;19.90;43.20;;;;;;5034652;28;20040;-68
2022/03/06 03:11:47;;;;;;;7.53;5.15;;;19.90;43.20;;;;;;5033312;28;20025;-68
2022/03/06 03:14:13;;;;;;;7.15;4.72;;;19.90;43.70;;;;;;5035749;28;20031;-68
2022/03/06 03:16:40;;;;;;;7.30;4.63;;;19.80;43.10;;;;;;5021391;28;20250;-64
2022/03/06 03:19:05;;;;;;;6.72;4.78;;;19.80;43.20;;;;;;5035263;28;20037;-66
2022/03/06 03:21:31;;;;;;;5.78;4.10;;;19.80;43.10;;;;;;5035178;28;20040;-68
2022/03/06 03:23:57;;;;;;;5.93;4.38;;;19.80;43.40;;;;;;5032428;28;20450;-68
2022/03/06 03:26:23;;;;;;;6.53;4.63;;;19.80;43.20;;;;;;5033801;28;20029;-67
2022/03/06 03:28:48;;;;;;;6.15;4.72;;;19.80;43.20;;;;;;5035638;28;20044;-68
2022/03/06 03:31:14;;;;;;;6.35;4.63;;;19.80;43.20;;;;;;5035215;28;20113;-66
2022/03/06 03:33:40;;;;;;;6.13;4.38;;;19.80;43.10;;;;;;5035068;28;20468;-65
2022/03/06 03:36:07;;;;;;;6.45;3.97;;;19.80;43.20;;;;;;5034026;28;20057;-67
2022/03/06 03:38:32;;;;;;;6.57;4.50;;;19.80;43.20;;;;;;5034178;28;20025;-68
2022/03/06 03:40:58;;;;;;;6.63;4.20;;;19.80;43.20;;;;;;5031217;28;20033;-66
2022/03/06 03:43:24;;;;;;;7.15;4.53;;;19.70;43.20;;;;;;5032574;28;20033;-66
2022/03/06 03:45:49;;;;;;;5.75;3.80;;;19.80;43.30;;;;;;5035362;28;20538;-65
2022/03/06 03:48:15;;;;;;;5.53;4.05;;;19.80;43.30;;;;;;5032938;28;20483;-69
2022/03/06 03:50:41;;;;;;;6.15;4.25;;;19.70;43.30;;;;;;5017577;28;20085;-65
2022/03/06 03:53:06;;;;;;;5.93;4.10;;;19.80;43.30;;;;;;5034225;28;20021;-68
2022/03/06 03:55:32;;;;;;;6.93;4.45;;;19.80;43.80;;;;;;5016702;28;20112;-68
2022/03/06 03:57:58;;;;;;;6.00;3.83;;;19.70;43.30;;;;;;5034974;28;20033;-65
2022/03/06 04:00:24;;;;;;;5.05;3.60;;;19.70;43.30;;;;;;5034358;28;20033;-68
2022/03/06 04:02:49;;;;;;;6.38;4.05;;;19.70;43.30;;;;;;5024696;28;20029;-69
2022/03/06 04:05:15;;;;;;;5.88;3.78;;;19.70;43.30;;;;;;5036529;28;20051;-68
2022/03/06 04:07:41;;;;;;;5.70;3.88;;;19.70;43.30;;;;;;5034723;28;20041;-67
2022/03/06 04:10:07;;;;;;;5.30;3.63;;;19.70;43.30;;;;;;5032339;28;20326;-68
2022/03/06 04:12:32;;;;;;;5.90;3.65;;;19.70;43.30;;;;;;5033761;28;20032;-66
2022/03/06 04:14:58;;;;;;;5.10;3.47;;;19.70;43.40;;;;;;5035953;28;20117;-64
2022/03/06 04:17:23;;;;;;;5.57;3.50;;;19.70;43.40;;;;;;5018804;28;20045;-68
2022/03/06 04:19:49;;;;;;;5.40;3.47;;;19.70;43.30;;;;;;5034929;28;20028;-68
2022/03/06 04:22:14;;;;;;;5.53;3.60;;;19.70;43.40;;;;;;5035137;28;20034;-63
2022/03/06 04:24:40;;;;;;;5.13;3.53;;;19.70;43.40;;;;;;5034222;28;20508;-64
2022/03/06 04:27:06;;;;;;;5.70;3.80;;;19.70;43.40;;;;;;5033323;28;20055;-68
2022/03/06 04:29:31;;;;;;;5.45;3.60;;;19.70;43.40;;;;;;5035776;28;20048;-68
2022/03/06 04:31:57;;;;;;;5.43;3.45;;;19.70;43.40;;;;;;5032960;28;20036;-65
2022/03/06 04:34:22;;;;;;;4.95;3.30;;;19.70;43.40;;;;;;5017179;28;20029;-68
2022/03/06 04:36:48;;;;;;;5.28;3.35;;;19.70;43.40;;;;;;5035898;28;20417;-65
2022/03/06 04:39:14;;;;;;;4.60;3.30;;;19.60;43.30;;;;;;5034168;28;20025;-66
2022/03/06 04:41:40;;;;;;;4.55;3.25;;;19.60;43.30;;;;;;5031267;28;20029;-65
2022/03/06 04:44:05;;;;;;;5.60;3.50;;;19.60;43.30;;;;;;5036307;28;20065;-65
2022/03/06 04:46:31;;;;;;;4.70;2.90;;;19.60;43.40;;;;;;5034740;28;20037;-69
2022/03/06 04:48:57;;;;;;;4.93;3.30;;;19.60;43.30;;;;;;5034711;28;20018;-65
2022/03/06 04:51:22;;;;;;;4.38;3.28;;;19.60;43.40;;;;;;5034711;28;20481;-66
2022/03/06 04:53:48;;;;;;;5.32;3.53;;;19.70;43.40;;;;;;5031432;28;20021;-64
2022/03/06 04:56:14;;;;;;;4.68;3.20;;;19.60;43.40;;;;;;5034550;28;20033;-68
2022/03/06 04:58:39;;;;;;;4.75;3.30;;;19.60;43.40;;;;;;5017639;28;20036;-68
2022/03/06 05:01:06;;;;;;;4.32;2.72;;;19.60;43.40;;;;;;5034470;28;20044;-68
2022/03/06 05:03:32;;;;;;;4.43;3.22;;;19.60;43.40;;;;;;5019063;28;20256;-66
2022/03/06 05:05:58;;;;;;;5.07;3.50;;;19.60;43.40;;;;;;5035525;28;20402;-66
2022/03/06 05:08:26;;;;;;;4.15;3.10;;;19.60;43.40;;;;;;5033999;28;20029;-66
2022/03/06 05:10:53;;;;;;;3.88;2.60;;;19.60;43.30;;;;;;5028688;28;20029;-68
2022/03/06 05:13:19;;;;;;;4.95;3.00;;;19.60;43.40;;;;;;5038185;28;20048;-68
2022/03/06 05:15:44;;;;;;;3.88;2.70;;;19.60;43.30;;;;;;5039682;28;20473;-66
2022/03/06 05:18:11;;;;;;;4.20;2.90;;;19.60;43.70;;;;;;5036666;28;20565;-66
2022/03/06 05:20:37;;;;;;;3.95;2.53;;;19.60;43.40;;;;;;5038338;28;20628;-68
2022/03/06 05:23:03;;;;;;;3.95;2.72;;;19.60;43.40;;;;;;5037772;28;20144;-66
2022/03/06 05:25:29;;;;;;;4.35;2.92;;;19.60;43.40;;;;;;5037137;28;20870;-66
2022/03/06 05:27:55;;;;;;;3.78;2.65;;;19.60;43.40;;;;;;5038181;28;20489;-65
2022/03/06 05:30:20;;;;;;;3.80;2.65;;;19.60;43.40;;;;;;5036924;28;20029;-66
2022/03/06 05:32:46;;;;;;;3.72;2.50;;;19.60;43.40;;;;;;5032039;28;20026;-68
2022/03/06 05:35:12;;;;;;;4.88;3.20;;;19.60;43.40;;;;;;5038736;28;20557;-68
2022/03/06 05:37:38;;;;;;;4.32;2.72;;;19.60;43.40;;;;;;5037292;28;20048;-65
2022/03/06 05:40:05;;;;;;;3.72;2.60;;;19.60;43.40;;;;;;5035761;28;20441;-68
2022/03/06 05:42:31;;;;;;;3.65;2.42;;;19.50;43.30;;;;;;5037829;28;20115;-68
2022/03/06 05:44:56;;;;;;;3.00;2.17;;;19.60;43.40;;;;;;5036698;28;20132;-63
2022/03/06 05:47:22;;;;;;;3.63;2.72;;;19.60;43.40;;;;;;5038890;28;20044;-68
2022/03/06 05:49:48;;;;;;;3.67;2.53;;;19.50;43.30;;;;;;5038463;28;20516;-64
2022/03/06 05:52:14;;;;;;;4.00;2.70;;;19.60;43.40;;;;;;5038669;28;20175;-64
2022/03/06 05:54:39;;;;;;;4.57;2.80;;;19.60;43.40;;;;;;5036882;28;20025;-68
2022/03/06 05:57:06;;;;;;;3.47;2.50;;;19.50;43.40;;;;;;5019123;28;20034;-64
2022/03/06 05:59:32;;;;;;;3.30;2.45;;;19.50;43.40;;;;;;5037299;28;20405;-68
2022/03/06 06:01:57;;;;;;;3.45;2.40;;;19.50;43.40;;;;;;5019617;28;20048;-68
2022/03/06 06:04:23;;;;;;;4.00;2.58;;;19.50;43.40;;;;;;5020184;28;20112;-66
2022/03/06 06:06:49;;;;;;;4.15;2.72;;;19.50;43.30;;;;;;5025164;28;20038;-69
2022/03/06 06:09:15;;;;;;;3.38;2.28;;;19.50;43.30;;;;;;5034883;28;20026;-68
2022/03/06 06:11:41;;;;;;;3.35;2.20;;;19.50;43.40;;;;;;5035162;28;20163;-68
2022/03/06 06:14:06;;;;;;;3.83;2.40;;;19.50;43.40;;;;;;5036788;28;20139;-68
2022/03/06 06:16:32;;;;;;;3.85;2.40;;;19.50;43.40;;;;;;5037569;28;20029;-65
2022/03/06 06:18:58;;;;;;;3.53;2.25;;;19.50;43.40;;;;;;5035939;28;20431;-65
2022/03/06 06:21:23;;;;;;;3.53;2.50;;;19.50;43.30;;;;;;5037281;28;20104;-68
2022/03/06 06:23:49;;;;;;;3.38;2.50;;;19.50;43.40;;;;;;5036334;28;20040;-68
2022/03/06 06:26:15;;;;;;;3.35;2.08;;;19.50;43.30;;;;;;5035574;28;20808;-68
2022/03/06 06:28:41;;;;;;;3.42;2.25;;;19.60;43.40;;;;;;5037482;28;20431;-64
2022/03/06 06:31:07;;;;;;;3.55;2.47;;;19.50;43.30;;;;;;5036155;28;20036;-68
2022/03/06 06:33:34;;;;;;;3.78;2.30;;;19.50;43.40;;;;;;5037392;28;20084;-68
2022/03/06 06:36:00;;;;;;;3.88;2.30;;;19.50;43.30;;;;;;5036325;28;20032;-64
2022/03/06 06:38:26;;;;;;;3.97;2.58;;;19.50;43.30;;;;;;5035795;28;20292;-64
2022/03/06 06:40:52;;;;;;;3.85;2.30;;;19.50;43.30;;;;;;5036232;28;20048;-64
2022/03/06 06:43:18;;;;;;;3.28;2.20;;;19.50;43.30;;;;;;5035884;28;20484;-66
2022/03/06 06:45:44;;;;;;;3.45;2.15;;;19.50;43.40;;;;;;5037174;28;20098;-66
2022/03/06 06:48:10;;;;;;;3.10;2.05;;;19.50;43.40;;;;;;5036289;28;20064;-63
2022/03/06 06:50:36;;;;;;;3.20;2.13;;;19.50;43.40;;;;;;5035935;28;20040;-68
2022/03/06 06:53:02;;;;;;;3.40;2.17;;;19.50;43.80;;;;;;5018716;28;20033;-66
2022/03/06 06:55:28;;;;;;;3.50;2.13;;;19.50;43.80;;;;;;5036333;28;20025;-68
2022/03/06 06:57:53;;;;;;;2.88;2.00;;;19.50;43.30;;;;;;5036619;28;20029;-65
2022/03/06 07:00:19;;;;;;;3.63;2.30;;;19.50;43.40;;;;;;5034729;28;20043;-68
2022/03/06 07:02:46;;;;;;;3.10;2.30;;;19.50;43.30;;;;;;5037444;28;20596;-68
2022/03/06 07:05:12;;;;;;;2.88;2.10;;;19.50;43.30;;;;;;5034616;28;20028;-63
2022/03/06 07:07:37;;;;;;;2.83;2.00;;;19.50;43.40;;;;;;5036004;28;20028;-66
2022/03/06 07:10:05;;;;;;;3.17;2.30;;;19.50;43.40;;;;;;5033827;28;20025;-67
2022/03/06 07:12:30;;;;;;;3.47;2.10;;;19.50;43.30;;;;;;5035818;28;20033;-69
2022/03/06 07:14:56;;;;;;;3.30;2.10;;;19.50;43.30;;;;;;5019016;28;20021;-67
2022/03/06 07:17:22;;;;;;;3.10;2.20;;;19.50;43.30;;;;;;5036218;28;20045;-68
2022/03/06 07:19:48;;;;;;;3.30;2.15;;;19.50;43.30;;;;;;5036146;28;20036;-64
2022/03/06 07:22:15;;;;;;;2.63;1.88;;;19.40;43.30;;;;;;5018266;28;20380;-65
2022/03/06 07:24:41;;;;;;;2.95;1.90;;;19.40;43.30;;;;;;5033908;28;20039;-66
2022/03/06 07:27:06;;;;;;;2.75;2.05;;;19.40;43.20;;;;;;5033746;28;20034;-64
2022/03/06 07:29:32;;;;;;;3.20;2.00;;;19.50;43.30;;;;;;5032558;28;20448;-68
2022/03/06 07:31:58;;;;;;;2.88;2.03;;;19.50;43.30;;;;;;5036461;28;20048;-64
2022/03/06 07:34:23;;;;;;;3.25;2.10;;;19.50;43.30;;;;;;5034128;28;20030;-65
2022/03/06 07:36:49;;;;;;;3.10;1.90;;;19.50;43.30;;;;;;5035320;28;20025;-66
2022/03/06 07:39:15;;;;;;;2.80;1.90;;;19.50;43.30;;;;;;5034034;28;20025;-65
2022/03/06 07:41:41;;;;;;;3.78;2.45;;;19.40;43.20;;;;;;5035051;28;20777;-65
2022/03/06 07:44:06;;;;;;;3.30;2.08;;;19.40;43.20;;;;;;5037007;28;20114;-68
2022/03/06 07:46:32;;;;;;;2.78;1.95;;;19.40;43.30;;;;;;5037760;28;20045;-65
2022/03/06 07:48:57;;;;;;;2.92;1.98;;;19.50;43.30;;;;;;5019465;28;20017;-65
2022/03/06 07:51:23;;;;;;;3.38;2.13;;;19.50;43.30;;;;;;5037431;28;20029;-65
2022/03/06 07:53:49;;;;;;;2.90;1.85;;;19.50;43.30;;;;;;5035080;28;20078;-64
2022/03/06 07:56:14;;;;;;;2.92;1.80;;;19.40;43.20;;;;;;5034493;28;20029;-68
2022/03/06 07:58:40;;;;;;;2.78;2.00;;;19.40;43.20;;;;;;5033414;28;20104;-67
2022/03/06 08:01:05;;;;;;;3.13;2.13;;;19.40;43.20;;;;;;5034115;28;20041;-67
2022/03/06 08:03:31;;;;;;;2.97;1.90;;;19.40;43.20;;;;;;5027552;28;20024;-67
2022/03/06 08:05:57;;;;;;;3.03;1.90;;;19.50;43.30;;;;;;5031660;28;20425;-64
2022/03/06 08:08:22;;;;;;;2.90;2.00;;;19.40;43.20;;;;;;5029943;28;20061;-66
2022/03/06 08:10:48;;;;;;;2.88;1.95;;;19.40;43.20;;;;;;5032065;28;20037;-68
2022/03/06 08:13:14;;;;;;;3.10;1.85;;;19.40;43.20;;;;;;5032183;28;20049;-69
2022/03/06 08:15:40;;;;;;;3.17;2.00;;;19.40;43.70;;;;;;5031768;28;20048;-67
2022/03/06 08:18:06;;;;;;;2.97;2.10;;;19.40;43.20;;;;;;5031586;28;20029;-65
2022/03/06 08:20:32;;;;;;;3.25;2.10;;;19.40;43.20;;;;;;5031132;28;20448;-66
2022/03/06 08:22:57;;;;;;;3.67;2.10;;;19.40;43.20;;;;;;5031796;28;20036;-68
2022/03/06 08:25:23;;;;;;;3.08;1.92;;;19.40;43.20;;;;;;5031827;28;20021;-64
2022/03/06 08:27:48;;;;;;;3.33;2.00;;;19.40;43.20;;;;;;5034220;28;20028;-64
2022/03/06 08:30:15;;;;;;;2.90;1.90;;;19.40;43.20;;;;;;5032190;28;20450;-68
2022/03/06 08:32:41;;;;;;;3.05;1.98;;;19.50;43.20;;;;;;5014837;28;20126;-65
2022/03/06 08:35:07;;;;;;;3.17;2.15;;;19.40;43.10;;;;;;5017749;28;20118;-67
2022/03/06 08:37:33;;;;;;;3.33;2.10;;;19.40;43.20;;;;;;5035562;28;20090;-65
2022/03/06 08:39:59;;;;;;;4.30;2.03;;;19.40;43.10;;;;;;5035085;28;20036;-65
2022/03/06 08:42:25;;;;;;;4.20;2.10;;;19.50;43.10;;;;;;5036404;28;20041;-68
2022/03/06 08:44:50;;;;;;;3.42;2.20;;;19.50;43.10;;;;;;5039942;28;20090;-64
2022/03/06 08:47:16;;;;;;;3.20;2.00;;;19.50;43.10;;;;;;5039541;28;20033;-63
2022/03/06 08:49:42;;;;;;;3.33;2.10;;;19.50;43.10;;;;;;5021562;28;20021;-68
2022/03/06 08:52:07;;;;;;;3.75;2.17;;;19.50;43.10;;;;;;5038738;28;20033;-67
2022/03/06 08:54:34;;;;;;;3.40;2.00;;;19.50;43.60;;;;;;5038406;28;20048;-66
2022/03/06 08:56:59;;;;;;;3.03;1.77;;;19.50;43.10;;;;;;5038426;28;20094;-65
2022/03/06 08:59:25;;;;;;;3.42;2.00;;;19.50;43.10;;;;;;5020680;28;20427;-68
2022/03/06 09:01:55;;;;;;;3.25;2.00;;;19.50;43.10;;;;;;5039939;28;20049;-65
2022/03/06 09:04:22;;;;;;;3.45;2.10;;;19.50;43.20;;;;;;5036596;28;20033;-68
2022/03/06 09:06:49;;;;;;;3.80;2.17;;;19.50;43.20;;;;;;5038604;28;20029;-62
2022/03/06 09:09:14;;;;;;;3.50;2.20;;;19.50;43.10;;;;;;5019416;28;20453;-67
2022/03/06 09:11:40;;;;;;;3.28;2.28;;;19.50;43.00;;;;;;5037860;28;20045;-68
2022/03/06 09:14:07;;;;;;;3.10;1.90;;;19.50;43.00;;;;;;5039454;28;20026;-68
2022/03/06 09:16:33;;;;;;;3.20;2.10;;;19.40;42.70;;;;;;5040853;28;20106;-64
2022/03/06 09:18:59;;;;;;;3.03;1.90;;;19.50;42.70;;;;;;5019614;28;20074;-67
2022/03/06 09:21:24;;;;;;;4.50;2.38;;;19.50;42.50;;;;;;5039596;28;20511;-67
2022/03/06 09:23:50;;;;;;;4.25;2.13;;;19.50;42.40;;;;;;5037343;28;20025;-65
2022/03/06 09:26:16;;;;;;;3.03;2.08;;;19.50;42.30;;;;;;5038078;28;20029;-65
2022/03/06 09:28:41;;;;;;;3.05;2.00;;;19.50;42.30;;;;;;5038221;28;20039;-65
2022/03/06 09:31:07;;;;;;;3.50;2.20;;;19.50;42.30;;;;;;5037904;28;20033;-68
2022/03/06 09:33:33;;;;;;;3.72;2.40;;;19.50;42.20;;;;;;5020843;28;20022;-64
2022/03/06 09:35:59;;;;;;;3.17;2.00;;;19.50;42.20;;;;;;5037322;28;20033;-64
2022/03/06 09:38:24;;;;;;;2.92;2.00;;;19.50;42.20;;;;;;5036059;28;20033;-67
2022/03/06 09:40:53;;;;;;;3.10;1.90;;;19.50;42.20;;;;;;5032519;28;20139;-64
2022/03/06 09:43:19;;;;;;;3.28;2.13;;;19.50;42.20;;;;;;5023589;28;20072;-65
2022/03/06 09:45:46;;;;;;;3.42;2.10;;;19.50;42.20;;;;;;5033796;28;20076;-64
2022/03/06 09:48:15;;;;;;;2.83;1.92;;;19.50;42.20;;;;;;5029877;28;20029;-67
2022/03/06 09:50:41;;;;;;;3.05;2.10;;;19.50;42.20;;;;;;5031769;28;20302;-67
2022/03/06 09:53:07;;;;;;;2.78;1.98;;;19.50;42.30;;;;;;5034438;28;20026;-64
2022/03/06 09:55:33;;;;;;;3.30;2.10;;;19.50;42.30;;;;;;5033104;28;20329;-65
2022/03/06 09:57:59;;;;;;;4.15;2.00;;;19.50;42.30;;;;;;5022543;28;20128;-65
2022/03/06 10:00:25;;;;;;;3.30;2.20;;;19.50;42.30;;;;;;5026052;28;20104;-68
2022/03/06 10:02:58;;;;;;;3.30;1.90;;;19.50;42.40;;;;;;5036385;28;20033;-67
2022/03/06 10:05:37;;;;;;;4.68;2.28;;;19.50;42.50;;;;;;5035135;28;20036;-63
2022/03/06 10:08:25;;;;;;;3.20;2.17;;;19.50;42.50;;;;;;5022069;28;20040;-66
2022/03/06 10:10:53;;;;;;;4.57;2.30;;;19.50;42.60;;;;;;5032272;28;20321;-68
2022/03/06 10:13:20;;;;;;;3.15;2.00;;;19.50;42.50;;;;;;5034408;28;20170;-67
2022/03/06 10:16:07;;;;;;;3.88;2.22;;;19.50;42.50;;;;;;5034781;28;20025;-68
2022/03/06 10:18:47;;;;;;;4.72;2.58;;;19.50;42.40;;;;;;5033881;28;20037;-67
2022/03/06 10:21:14;;;;;;;3.97;2.40;;;19.50;42.40;;;;;;5029651;28;20512;-68
2022/03/06 10:23:41;;;;;;;4.93;2.38;;;19.50;42.40;;;;;;5034402;28;20026;-68
2022/03/06 10:26:16;;;;;;;4.32;2.30;;;19.50;42.40;;;;;;5032759;28;20032;-66
2022/03/06 10:28:52;;;;;;;4.88;2.65;;;19.50;42.40;;;;;;5034663;28;20037;-66
2022/03/06 10:31:19;;;;;;;5.03;2.90;;;19.50;42.50;;;;;;5022386;28;20433;-67
2022/03/06 10:34:05;;;;;;;4.35;2.50;;;19.50;42.60;;;;;;5034364;28;20025;-63
2022/03/06 10:36:31;;;;;;;4.78;2.88;;;19.50;42.70;;;;;;5031824;28;20043;-66
2022/03/06 10:38:57;;;;;;;4.78;2.92;;;19.50;42.80;;;;;;5033902;28;20032;-66
2022/03/06 10:41:22;;;;;;;5.40;2.70;;;19.50;42.90;;;;;;5031996;28;20033;-68
2022/03/06 10:43:49;;;;;;;4.90;2.70;;;19.50;43.00;;;;;;5033915;28;20186;-66
2022/03/06 10:46:20;;;;;;;4.85;2.63;;;19.60;43.10;;;;;;5033703;28;20059;-66
2022/03/06 10:48:57;;;;;;;5.40;3.08;;;19.50;43.10;;;;;;5033922;28;20339;-67
2022/03/06 10:51:23;;;;;;;4.78;2.40;;;19.50;43.70;;;;;;5032403;28;20549;-63
2022/03/06 10:53:57;;;;;;;4.90;2.53;;;19.50;43.20;;;;;;5033179;28;20166;-68
2022/03/06 10:56:24;;;;;;;4.72;2.55;;;19.60;43.30;;;;;;5033475;28;20026;-67
2022/03/06 10:58:50;;;;;;;4.40;2.33;;;19.60;43.20;;;;;;5033050;28;20021;-68
2022/03/06 11:01:17;;;;;;;4.28;2.53;;;19.50;43.20;;;;;;5032810;28;21748;-68
2022/03/06 11:03:43;;;;;;;5.75;2.45;;;19.50;43.20;;;;;;5031967;28;20103;-67
2022/03/06 11:06:11;;;;;;;4.05;2.50;;;19.50;43.20;;;;;;5031971;28;20366;-64
2022/03/06 11:08:38;;;;;;;3.80;2.40;;;19.60;43.20;;;;;;5031456;28;20038;-68
2022/03/06 11:11:08;;;;;;;4.22;2.10;;;19.60;43.20;;;;;;5013929;28;20431;-65
2022/03/06 11:13:35;;;;;;;4.93;2.60;;;19.60;43.20;;;;;;5035616;28;20416;-67
2022/03/06 11:16:04;;;;;;;4.65;2.60;;;19.60;43.20;;;;;;5033049;28;20043;-66
2022/03/06 11:18:31;;;;;;;4.70;2.58;;;19.60;43.20;;;;;;5032972;28;20037;-66
2022/03/06 11:20:58;;;;;;;4.38;2.42;;;19.60;43.30;;;;;;5034041;28;20033;-67
2022/03/06 11:23:45;;;;;;;3.88;2.30;;;19.60;43.40;;;;;;5032736;28;20033;-65
2022/03/06 11:26:14;;;;;;;4.88;2.25;;;19.60;43.60;;;;;;5031755;28;20890;-66
2022/03/06 11:29:13;;;;;;;3.90;2.22;;;19.60;43.90;;;;;;5031481;28;20562;-65
2022/03/06 11:31:47;;;;;;;5.15;2.30;;;19.60;44.00;;;;;;5030844;28;20419;-66
2022/03/06 11:34:26;;;;;;;3.85;2.05;;;19.60;44.10;;;;;;5031068;28;20167;-68
2022/03/06 11:36:52;;;;;;;4.47;2.70;;;19.60;44.20;;;;;;5032728;28;20115;-66
2022/03/06 11:39:30;;;;;;;4.13;2.20;;;19.60;44.30;;;;;;5030142;28;20040;-67
2022/03/06 11:42:04;;;;;;;4.32;2.25;;;19.60;44.30;;;;;;5030924;28;20627;-64
2022/03/06 11:44:37;;;;;;;3.78;2.25;;;19.60;44.30;;;;;;5031482;28;20027;-66
2022/03/06 11:47:37;;;;;;;4.25;2.35;;;19.60;44.30;;;;;;5029891;28;20037;-64
2022/03/06 11:50:03;;;;;;;;;;;19.60;44.30;;;;;;5029302;28;20091;-66
2022/03/06 11:52:36;;;;;;;3.72;2.00;;;19.60;44.30;;;;;;5030923;28;20004;-67
2022/03/06 11:55:29;;;;;;;3.72;2.05;;;19.60;44.20;;;;;;5030095;28;20186;-66
2022/03/06 11:57:54;;;;;;;5.55;2.30;;;19.60;44.30;;;;;;5027555;28;20030;-67
2022/03/06 12:00:24;;;;;;;3.88;2.15;;;19.60;44.30;;;;;;5029940;28;20051;-67
2022/03/06 12:02:55;;;;;;;3.17;1.92;;;19.60;44.40;;;;;;5031716;28;20025;-68
2022/03/06 12:05:22;;;;;;;3.03;1.80;;;19.70;44.70;;;;;;5031078;28;20076;-68
2022/03/06 12:07:50;;;;;;;3.60;2.00;;;19.70;44.60;;;;;;5029719;28;20029;-68
2022/03/06 12:10:17;;;;;;;3.75;2.05;;;19.70;44.60;;;;;;5028242;28;20381;-66
2022/03/06 12:12:55;;;;;;;4.55;2.33;;;19.70;44.50;;;;;;5031879;28;20029;-68
2022/03/06 12:15:26;;;;;;;3.97;2.17;;;19.70;44.50;;;;;;5033504;28;20348;-67
2022/03/06 12:17:52;;;;;;;4.57;1.98;;;19.70;44.50;;;;;;5039347;28;20028;-65
2022/03/06 12:20:24;;;;;;;3.10;2.00;;;19.70;44.60;;;;;;5037158;28;20454;-66
2022/03/06 12:22:51;;;;;;;3.47;2.17;;;19.70;44.70;;;;;;5035464;28;20462;-67
2022/03/06 12:25:20;;;;;;;3.80;1.98;;;19.70;44.70;;;;;;5037758;28;20084;-68
2022/03/06 12:28:00;;;;;;;4.32;2.03;;;19.70;44.80;;;;;;5038380;28;20021;-65
2022/03/06 12:30:26;;;;;;;4.05;2.30;;;19.70;44.90;;;;;;5035669;28;20127;-67
2022/03/06 12:32:52;;;;;;;3.60;2.10;;;19.70;44.90;;;;;;5036809;28;20485;-65
2022/03/06 12:35:22;;;;;;;3.45;1.85;;;19.70;45.00;;;;;;5021707;28;20029;-68
2022/03/06 12:37:53;;;;;;;3.88;2.33;;;19.70;44.90;;;;;;5038172;28;20021;-68
2022/03/06 12:40:21;;;;;;;5.68;2.40;;;19.80;45.00;;;;;;5037815;28;20147;-67
2022/03/06 12:42:50;;;;;;;3.65;1.98;;;19.80;45.00;;;;;;5037337;28;20108;-64
2022/03/06 12:45:19;;;;;;;4.10;1.95;;;19.80;45.00;;;;;;5036516;28;20037;-67